sensor_id;sensor_type;location;lat;lon;timestamp;P1;durP1;ratioP1;P2;durP2;ratioP2
55913;SDS011;58179;48.776;9.124;2022-08-14T00:01:03;5.53;;;2.03;;
55913;SDS011;58179;48.776;9.124;2022-08-14T00:03:29;3.13;;;2.30;;
55913;SDS011;58179;48.776;9.124;2022-08-14T00:05:57;3.78;;;2.45;;
55913;SDS011;58179;48.776;9.124;2022-08-14T00:08:25;4.00;;;2.30;;
55913;SDS011;58179;48.776;9.124;2022-08-14T00:10:52;6.75;;;2.30;;
55913;SDS011;58179;48.776;9.124;2022-08-14T00:13:19;3.58;;;2.60;;
55913;SDS011;58179;48.776;9.124;2022-08-14T00:15:49;4.40;;;2.67;;
55913;SDS011;58179;48.776;9.124;2022-08-14T00:18:16;3.60;;;2.30;;
55913;SDS011;58179;48.776;9.124;2022-08-14T00:20:44;6.68;;;3.05;;
55913;SDS011;58179;48.776;9.124;2022-08-14T00:23:11;9.95;;;2.97;;
55913;SDS011;58179;48.776;9.124;2022-08-14T00:25:39;4.85;;;3.00;;
55913;SDS011;58179;48.776;9.124;2022-08-14T00:28:06;4.53;;;3.22;;
55913;SDS011;58179;48.776;9.124;2022-08-14T00:30:36;6.57;;;3.60;;
55913;SDS011;58179;48.776;9.124;2022-08-14T00:33:03;5.47;;;3.35;;
55913;SDS011;58179;48.776;9.124;2022-08-14T00:35:30;4.55;;;3.35;;
55913;SDS011;58179;48.776;9.124;2022-08-14T00:37:56;5.40;;;3.20;;
55913;SDS011;58179;48.776;9.124;2022-08-14T00:40:22;6.93;;;3.28;;
55913;SDS011;58179;48.776;9.124;2022-08-14T00:42:49;5.75;;;3.25;;
55913;SDS011;58179;48.776;9.124;2022-08-14T00:45:15;6.82;;;3.40;;
55913;SDS011;58179;48.776;9.124;2022-08-14T00:47:43;5.15;;;2.97;;
55913;SDS011;58179;48.776;9.124;2022-08-14T00:50:15;4.95;;;3.17;;
55913;SDS011;58179;48.776;9.124;2022-08-14T00:52:44;6.33;;;3.10;;
55913;SDS011;58179;48.776;9.124;2022-08-14T00:55:11;6.03;;;2.83;;
55913;SDS011;58179;48.776;9.124;2022-08-14T00:57:38;4.97;;;2.70;;
55913;SDS011;58179;48.776;9.124;2022-08-14T01:00:07;5.93;;;2.85;;
55913;SDS011;58179;48.776;9.124;2022-08-14T01:02:38;4.80;;;2.85;;
55913;SDS011;58179;48.776;9.124;2022-08-14T01:05:08;5.25;;;2.70;;
55913;SDS011;58179;48.776;9.124;2022-08-14T01:07:48;5.53;;;2.70;;
55913;SDS011;58179;48.776;9.124;2022-08-14T01:10:18;6.18;;;2.50;;
55913;SDS011;58179;48.776;9.124;2022-08-14T01:12:45;3.42;;;2.47;;
55913;SDS011;58179;48.776;9.124;2022-08-14T01:15:13;4.15;;;2.38;;
55913;SDS011;58179;48.776;9.124;2022-08-14T01:17:41;3.63;;;2.67;;
55913;SDS011;58179;48.776;9.124;2022-08-14T01:20:26;3.25;;;2.45;;
55913;SDS011;58179;48.776;9.124;2022-08-14T01:23:13;4.47;;;2.50;;
55913;SDS011;58179;48.776;9.124;2022-08-14T01:25:39;5.55;;;2.72;;
55913;SDS011;58179;48.776;9.124;2022-08-14T01:28:06;3.30;;;2.42;;
55913;SDS011;58179;48.776;9.124;2022-08-14T01:30:32;3.47;;;2.53;;
55913;SDS011;58179;48.776;9.124;2022-08-14T01:33:02;5.25;;;2.50;;
55913;SDS011;58179;48.776;9.124;2022-08-14T01:35:28;3.20;;;2.47;;
55913;SDS011;58179;48.776;9.124;2022-08-14T01:37:54;4.40;;;2.30;;
55913;SDS011;58179;48.776;9.124;2022-08-14T01:40:22;4.30;;;2.63;;
55913;SDS011;58179;48.776;9.124;2022-08-14T01:42:49;5.03;;;2.28;;
55913;SDS011;58179;48.776;9.124;2022-08-14T01:45:15;3.90;;;2.40;;
55913;SDS011;58179;48.776;9.124;2022-08-14T01:47:41;6.18;;;2.72;;
55913;SDS011;58179;48.776;9.124;2022-08-14T01:50:07;3.33;;;2.20;;
55913;SDS011;58179;48.776;9.124;2022-08-14T01:52:35;4.55;;;2.60;;
55913;SDS011;58179;48.776;9.124;2022-08-14T01:55:03;4.30;;;2.55;;
55913;SDS011;58179;48.776;9.124;2022-08-14T01:57:35;3.10;;;2.60;;
55913;SDS011;58179;48.776;9.124;2022-08-14T02:00:02;3.60;;;2.50;;
55913;SDS011;58179;48.776;9.124;2022-08-14T02:02:30;7.15;;;2.58;;
55913;SDS011;58179;48.776;9.124;2022-08-14T02:04:56;4.82;;;2.80;;
55913;SDS011;58179;48.776;9.124;2022-08-14T02:07:23;7.57;;;2.78;;
55913;SDS011;58179;48.776;9.124;2022-08-14T02:09:49;4.18;;;2.53;;
55913;SDS011;58179;48.776;9.124;2022-08-14T02:12:15;3.28;;;2.60;;
55913;SDS011;58179;48.776;9.124;2022-08-14T02:14:42;3.33;;;2.40;;
55913;SDS011;58179;48.776;9.124;2022-08-14T02:17:09;3.97;;;2.53;;
55913;SDS011;58179;48.776;9.124;2022-08-14T02:19:37;4.88;;;2.60;;
55913;SDS011;58179;48.776;9.124;2022-08-14T02:22:03;4.07;;;2.67;;
55913;SDS011;58179;48.776;9.124;2022-08-14T02:24:30;3.58;;;2.55;;
55913;SDS011;58179;48.776;9.124;2022-08-14T02:26:56;3.55;;;2.50;;
55913;SDS011;58179;48.776;9.124;2022-08-14T02:29:25;5.18;;;2.80;;
55913;SDS011;58179;48.776;9.124;2022-08-14T02:31:56;8.32;;;2.80;;
55913;SDS011;58179;48.776;9.124;2022-08-14T02:34:24;4.13;;;2.78;;
55913;SDS011;58179;48.776;9.124;2022-08-14T02:36:56;3.72;;;2.78;;
55913;SDS011;58179;48.776;9.124;2022-08-14T02:39:27;5.55;;;2.67;;
55913;SDS011;58179;48.776;9.124;2022-08-14T02:41:53;3.35;;;2.63;;
55913;SDS011;58179;48.776;9.124;2022-08-14T02:44:19;4.57;;;2.80;;
55913;SDS011;58179;48.776;9.124;2022-08-14T02:46:47;4.45;;;2.60;;
55913;SDS011;58179;48.776;9.124;2022-08-14T02:49:16;4.05;;;3.08;;
55913;SDS011;58179;48.776;9.124;2022-08-14T02:51:46;5.85;;;2.65;;
55913;SDS011;58179;48.776;9.124;2022-08-14T02:54:13;5.47;;;3.17;;
55913;SDS011;58179;48.776;9.124;2022-08-14T02:56:39;2.83;;;2.53;;
55913;SDS011;58179;48.776;9.124;2022-08-14T02:59:05;5.30;;;2.67;;
55913;SDS011;58179;48.776;9.124;2022-08-14T03:01:33;5.28;;;3.00;;
55913;SDS011;58179;48.776;9.124;2022-08-14T03:04:00;4.57;;;2.90;;
55913;SDS011;58179;48.776;9.124;2022-08-14T03:06:31;4.07;;;2.60;;
55913;SDS011;58179;48.776;9.124;2022-08-14T03:08:57;3.35;;;2.55;;
55913;SDS011;58179;48.776;9.124;2022-08-14T03:11:24;5.93;;;2.80;;
55913;SDS011;58179;48.776;9.124;2022-08-14T03:13:50;7.82;;;2.90;;
55913;SDS011;58179;48.776;9.124;2022-08-14T03:16:18;4.53;;;2.80;;
55913;SDS011;58179;48.776;9.124;2022-08-14T03:18:47;5.15;;;2.75;;
55913;SDS011;58179;48.776;9.124;2022-08-14T03:21:18;4.63;;;3.05;;
55913;SDS011;58179;48.776;9.124;2022-08-14T03:23:50;4.97;;;2.70;;
55913;SDS011;58179;48.776;9.124;2022-08-14T03:26:45;5.85;;;3.00;;
55913;SDS011;58179;48.776;9.124;2022-08-14T03:29:12;5.63;;;2.95;;
55913;SDS011;58179;48.776;9.124;2022-08-14T03:31:40;3.75;;;2.50;;
55913;SDS011;58179;48.776;9.124;2022-08-14T03:34:07;3.92;;;2.75;;
55913;SDS011;58179;48.776;9.124;2022-08-14T03:36:34;3.42;;;2.80;;
55913;SDS011;58179;48.776;9.124;2022-08-14T03:39:03;5.73;;;2.90;;
55913;SDS011;58179;48.776;9.124;2022-08-14T03:41:30;6.93;;;3.05;;
55913;SDS011;58179;48.776;9.124;2022-08-14T03:43:57;5.70;;;3.13;;
55913;SDS011;58179;48.776;9.124;2022-08-14T03:46:26;5.28;;;3.00;;
55913;SDS011;58179;48.776;9.124;2022-08-14T03:48:54;5.10;;;2.60;;
55913;SDS011;58179;48.776;9.124;2022-08-14T03:51:21;6.20;;;2.90;;
55913;SDS011;58179;48.776;9.124;2022-08-14T03:53:52;7.93;;;3.43;;
55913;SDS011;58179;48.776;9.124;2022-08-14T03:56:22;5.22;;;2.88;;
55913;SDS011;58179;48.776;9.124;2022-08-14T03:58:51;4.15;;;2.88;;
55913;SDS011;58179;48.776;9.124;2022-08-14T04:01:20;3.97;;;2.40;;
55913;SDS011;58179;48.776;9.124;2022-08-14T04:03:49;5.20;;;2.67;;
55913;SDS011;58179;48.776;9.124;2022-08-14T04:06:19;8.05;;;2.92;;
55913;SDS011;58179;48.776;9.124;2022-08-14T04:08:46;3.10;;;2.70;;
55913;SDS011;58179;48.776;9.124;2022-08-14T04:11:17;5.85;;;2.72;;
55913;SDS011;58179;48.776;9.124;2022-08-14T04:13:45;3.42;;;2.50;;
55913;SDS011;58179;48.776;9.124;2022-08-14T04:16:13;4.68;;;2.88;;
55913;SDS011;58179;48.776;9.124;2022-08-14T04:18:43;3.53;;;2.63;;
55913;SDS011;58179;48.776;9.124;2022-08-14T04:21:10;4.35;;;2.55;;
55913;SDS011;58179;48.776;9.124;2022-08-14T04:23:38;3.57;;;2.50;;
55913;SDS011;58179;48.776;9.124;2022-08-14T04:26:05;3.00;;;2.70;;
55913;SDS011;58179;48.776;9.124;2022-08-14T04:28:35;6.47;;;2.85;;
55913;SDS011;58179;48.776;9.124;2022-08-14T04:31:04;5.63;;;2.90;;
55913;SDS011;58179;48.776;9.124;2022-08-14T04:33:30;3.33;;;2.63;;
55913;SDS011;58179;48.776;9.124;2022-08-14T04:35:56;5.22;;;3.22;;
55913;SDS011;58179;48.776;9.124;2022-08-14T04:38:23;4.68;;;2.70;;
55913;SDS011;58179;48.776;9.124;2022-08-14T04:41:08;4.30;;;2.80;;
55913;SDS011;58179;48.776;9.124;2022-08-14T04:43:53;4.68;;;2.67;;
55913;SDS011;58179;48.776;9.124;2022-08-14T04:46:21;3.67;;;2.67;;
55913;SDS011;58179;48.776;9.124;2022-08-14T04:48:48;3.58;;;2.70;;
55913;SDS011;58179;48.776;9.124;2022-08-14T04:51:15;4.47;;;2.75;;
55913;SDS011;58179;48.776;9.124;2022-08-14T04:53:45;4.78;;;2.80;;
55913;SDS011;58179;48.776;9.124;2022-08-14T04:56:13;4.40;;;2.80;;
55913;SDS011;58179;48.776;9.124;2022-08-14T04:58:41;4.43;;;2.88;;
55913;SDS011;58179;48.776;9.124;2022-08-14T05:01:08;6.80;;;2.95;;
55913;SDS011;58179;48.776;9.124;2022-08-14T05:03:37;5.05;;;2.75;;
55913;SDS011;58179;48.776;9.124;2022-08-14T05:06:04;5.57;;;2.70;;
55913;SDS011;58179;48.776;9.124;2022-08-14T05:08:32;8.80;;;3.00;;
55913;SDS011;58179;48.776;9.124;2022-08-14T05:10:59;5.90;;;2.63;;
55913;SDS011;58179;48.776;9.124;2022-08-14T05:13:29;8.77;;;2.80;;
55913;SDS011;58179;48.776;9.124;2022-08-14T05:15:56;6.87;;;3.13;;
55913;SDS011;58179;48.776;9.124;2022-08-14T05:18:24;6.97;;;2.90;;
55913;SDS011;58179;48.776;9.124;2022-08-14T05:20:54;6.32;;;2.83;;
55913;SDS011;58179;48.776;9.124;2022-08-14T05:23:22;9.52;;;2.80;;
55913;SDS011;58179;48.776;9.124;2022-08-14T05:25:52;4.77;;;2.97;;
55913;SDS011;58179;48.776;9.124;2022-08-14T05:28:24;9.57;;;3.28;;
55913;SDS011;58179;48.776;9.124;2022-08-14T05:30:53;5.38;;;3.03;;
55913;SDS011;58179;48.776;9.124;2022-08-14T05:33:21;4.72;;;3.08;;
55913;SDS011;58179;48.776;9.124;2022-08-14T05:35:51;5.60;;;3.20;;
55913;SDS011;58179;48.776;9.124;2022-08-14T05:38:25;5.30;;;3.30;;
55913;SDS011;58179;48.776;9.124;2022-08-14T05:40:54;3.80;;;2.90;;
55913;SDS011;58179;48.776;9.124;2022-08-14T05:43:21;6.07;;;3.20;;
55913;SDS011;58179;48.776;9.124;2022-08-14T05:45:47;3.35;;;2.90;;
55913;SDS011;58179;48.776;9.124;2022-08-14T05:48:13;3.88;;;2.80;;
55913;SDS011;58179;48.776;9.124;2022-08-14T05:50:43;5.13;;;2.92;;
55913;SDS011;58179;48.776;9.124;2022-08-14T05:53:10;4.50;;;2.80;;
55913;SDS011;58179;48.776;9.124;2022-08-14T05:55:36;5.32;;;2.88;;
55913;SDS011;58179;48.776;9.124;2022-08-14T05:58:03;3.15;;;2.63;;
55913;SDS011;58179;48.776;9.124;2022-08-14T06:00:32;3.35;;;2.70;;
55913;SDS011;58179;48.776;9.124;2022-08-14T06:03:01;3.83;;;2.80;;
55913;SDS011;58179;48.776;9.124;2022-08-14T06:05:29;4.40;;;2.80;;
55913;SDS011;58179;48.776;9.124;2022-08-14T06:07:56;5.78;;;2.88;;
55913;SDS011;58179;48.776;9.124;2022-08-14T06:10:24;3.85;;;2.50;;
55913;SDS011;58179;48.776;9.124;2022-08-14T06:12:50;5.18;;;2.53;;
55913;SDS011;58179;48.776;9.124;2022-08-14T06:15:16;3.60;;;2.50;;
55913;SDS011;58179;48.776;9.124;2022-08-14T06:17:43;4.37;;;2.67;;
55913;SDS011;58179;48.776;9.124;2022-08-14T06:20:10;4.97;;;2.67;;
55913;SDS011;58179;48.776;9.124;2022-08-14T06:22:37;3.00;;;2.03;;
55913;SDS011;58179;48.776;9.124;2022-08-14T06:25:05;2.85;;;2.58;;
55913;SDS011;58179;48.776;9.124;2022-08-14T06:27:35;6.68;;;2.63;;
55913;SDS011;58179;48.776;9.124;2022-08-14T06:30:02;3.80;;;2.47;;
55913;SDS011;58179;48.776;9.124;2022-08-14T06:32:30;7.07;;;2.75;;
55913;SDS011;58179;48.776;9.124;2022-08-14T06:34:56;5.68;;;2.75;;
55913;SDS011;58179;48.776;9.124;2022-08-14T06:37:22;3.25;;;2.63;;
55913;SDS011;58179;48.776;9.124;2022-08-14T06:39:48;5.80;;;3.10;;
55913;SDS011;58179;48.776;9.124;2022-08-14T06:42:13;7.38;;;2.97;;
55913;SDS011;58179;48.776;9.124;2022-08-14T06:44:41;6.60;;;2.83;;
55913;SDS011;58179;48.776;9.124;2022-08-14T06:47:07;5.88;;;3.13;;
55913;SDS011;58179;48.776;9.124;2022-08-14T06:49:33;8.68;;;3.03;;
55913;SDS011;58179;48.776;9.124;2022-08-14T06:51:59;5.37;;;2.87;;
55913;SDS011;58179;48.776;9.124;2022-08-14T06:54:25;8.20;;;2.73;;
55913;SDS011;58179;48.776;9.124;2022-08-14T06:56:51;3.43;;;2.40;;
55913;SDS011;58179;48.776;9.124;2022-08-14T06:59:17;8.07;;;2.90;;
55913;SDS011;58179;48.776;9.124;2022-08-14T07:01:44;4.77;;;2.40;;
55913;SDS011;58179;48.776;9.124;2022-08-14T07:04:28;5.60;;;2.33;;
55913;SDS011;58179;48.776;9.124;2022-08-14T07:07:13;3.83;;;2.47;;
55913;SDS011;58179;48.776;9.124;2022-08-14T07:09:40;4.40;;;2.40;;
55913;SDS011;58179;48.776;9.124;2022-08-14T07:12:06;3.28;;;2.35;;
55913;SDS011;58179;48.776;9.124;2022-08-14T07:14:33;4.20;;;2.40;;
55913;SDS011;58179;48.776;9.124;2022-08-14T07:17:00;5.93;;;2.50;;
55913;SDS011;58179;48.776;9.124;2022-08-14T07:19:26;5.50;;;2.63;;
55913;SDS011;58179;48.776;9.124;2022-08-14T07:21:52;3.10;;;2.10;;
55913;SDS011;58179;48.776;9.124;2022-08-14T07:24:18;5.35;;;2.80;;
55913;SDS011;58179;48.776;9.124;2022-08-14T07:26:44;5.57;;;2.45;;
55913;SDS011;58179;48.776;9.124;2022-08-14T07:29:10;4.78;;;2.10;;
55913;SDS011;58179;48.776;9.124;2022-08-14T07:31:36;3.73;;;2.10;;
55913;SDS011;58179;48.776;9.124;2022-08-14T07:34:03;5.13;;;2.27;;
55913;SDS011;58179;48.776;9.124;2022-08-14T07:36:29;5.68;;;2.30;;
55913;SDS011;58179;48.776;9.124;2022-08-14T07:38:55;4.53;;;2.50;;
55913;SDS011;58179;48.776;9.124;2022-08-14T07:41:22;2.92;;;2.17;;
55913;SDS011;58179;48.776;9.124;2022-08-14T07:43:48;5.88;;;2.20;;
55913;SDS011;58179;48.776;9.124;2022-08-14T07:46:14;4.22;;;2.30;;
55913;SDS011;58179;48.776;9.124;2022-08-14T07:48:40;3.28;;;2.22;;
55913;SDS011;58179;48.776;9.124;2022-08-14T07:51:09;4.25;;;2.40;;
55913;SDS011;58179;48.776;9.124;2022-08-14T07:53:35;6.60;;;2.22;;
55913;SDS011;58179;48.776;9.124;2022-08-14T07:56:01;4.78;;;2.28;;
55913;SDS011;58179;48.776;9.124;2022-08-14T07:58:27;3.28;;;2.33;;
55913;SDS011;58179;48.776;9.124;2022-08-14T08:00:53;3.60;;;2.30;;
55913;SDS011;58179;48.776;9.124;2022-08-14T08:03:21;2.58;;;2.28;;
55913;SDS011;58179;48.776;9.124;2022-08-14T08:05:49;8.00;;;2.40;;
55913;SDS011;58179;48.776;9.124;2022-08-14T08:08:16;4.07;;;2.15;;
55913;SDS011;58179;48.776;9.124;2022-08-14T08:10:45;3.15;;;2.40;;
55913;SDS011;58179;48.776;9.124;2022-08-14T08:13:12;5.65;;;2.50;;
55913;SDS011;58179;48.776;9.124;2022-08-14T08:15:41;4.53;;;2.63;;
55913;SDS011;58179;48.776;9.124;2022-08-14T08:18:10;4.97;;;2.60;;
55913;SDS011;58179;48.776;9.124;2022-08-14T08:20:39;7.80;;;2.50;;
55913;SDS011;58179;48.776;9.124;2022-08-14T08:23:07;2.97;;;2.35;;
55913;SDS011;58179;48.776;9.124;2022-08-14T08:25:37;4.35;;;2.28;;
55913;SDS011;58179;48.776;9.124;2022-08-14T08:28:07;4.15;;;2.00;;
55913;SDS011;58179;48.776;9.124;2022-08-14T08:30:36;5.25;;;2.38;;
55913;SDS011;58179;48.776;9.124;2022-08-14T08:33:05;6.65;;;2.30;;
55913;SDS011;58179;48.776;9.124;2022-08-14T08:35:32;3.85;;;2.03;;
55913;SDS011;58179;48.776;9.124;2022-08-14T08:38:01;4.83;;;2.17;;
55913;SDS011;58179;48.776;9.124;2022-08-14T08:40:30;3.58;;;2.00;;
55913;SDS011;58179;48.776;9.124;2022-08-14T08:43:01;3.25;;;2.13;;
55913;SDS011;58179;48.776;9.124;2022-08-14T08:45:30;3.33;;;1.80;;
55913;SDS011;58179;48.776;9.124;2022-08-14T08:47:59;4.22;;;2.03;;
55913;SDS011;58179;48.776;9.124;2022-08-14T08:50:26;4.13;;;2.00;;
55913;SDS011;58179;48.776;9.124;2022-08-14T08:52:56;2.70;;;2.00;;
55913;SDS011;58179;48.776;9.124;2022-08-14T08:55:29;3.80;;;2.07;;
55913;SDS011;58179;48.776;9.124;2022-08-14T08:57:57;4.20;;;1.80;;
55913;SDS011;58179;48.776;9.124;2022-08-14T09:00:29;4.95;;;2.10;;
55913;SDS011;58179;48.776;9.124;2022-08-14T09:03:02;4.30;;;2.00;;
55913;SDS011;58179;48.776;9.124;2022-08-14T09:05:30;2.80;;;1.98;;
55913;SDS011;58179;48.776;9.124;2022-08-14T09:08:08;5.60;;;2.10;;
55913;SDS011;58179;48.776;9.124;2022-08-14T09:10:36;4.22;;;2.15;;
55913;SDS011;58179;48.776;9.124;2022-08-14T09:13:04;5.35;;;2.10;;
55913;SDS011;58179;48.776;9.124;2022-08-14T09:15:30;3.85;;;2.17;;
55913;SDS011;58179;48.776;9.124;2022-08-14T09:17:56;3.80;;;2.00;;
55913;SDS011;58179;48.776;9.124;2022-08-14T09:20:23;3.22;;;2.30;;
55913;SDS011;58179;48.776;9.124;2022-08-14T09:22:49;4.35;;;2.10;;
55913;SDS011;58179;48.776;9.124;2022-08-14T09:25:16;3.70;;;2.30;;
55913;SDS011;58179;48.776;9.124;2022-08-14T09:27:43;5.13;;;2.15;;
55913;SDS011;58179;48.776;9.124;2022-08-14T09:30:10;4.93;;;1.90;;
55913;SDS011;58179;48.776;9.124;2022-08-14T09:32:38;5.55;;;2.53;;
55913;SDS011;58179;48.776;9.124;2022-08-14T09:35:29;2.92;;;2.13;;
55913;SDS011;58179;48.776;9.124;2022-08-14T09:38:10;8.45;;;2.38;;
55913;SDS011;58179;48.776;9.124;2022-08-14T09:40:46;3.17;;;2.13;;
55913;SDS011;58179;48.776;9.124;2022-08-14T09:43:29;3.22;;;2.22;;
55913;SDS011;58179;48.776;9.124;2022-08-14T09:46:08;5.53;;;2.13;;
55913;SDS011;58179;48.776;9.124;2022-08-14T09:48:34;4.32;;;2.15;;
55913;SDS011;58179;48.776;9.124;2022-08-14T09:51:02;4.10;;;2.25;;
55913;SDS011;58179;48.776;9.124;2022-08-14T09:53:35;6.50;;;2.42;;
55913;SDS011;58179;48.776;9.124;2022-08-14T09:56:06;2.60;;;2.10;;
55913;SDS011;58179;48.776;9.124;2022-08-14T09:58:36;3.83;;;2.30;;
55913;SDS011;58179;48.776;9.124;2022-08-14T10:01:11;3.45;;;2.22;;
55913;SDS011;58179;48.776;9.124;2022-08-14T10:03:46;4.72;;;2.30;;
55913;SDS011;58179;48.776;9.124;2022-08-14T10:06:15;6.50;;;2.67;;
55913;SDS011;58179;48.776;9.124;2022-08-14T10:08:44;4.95;;;2.20;;
55913;SDS011;58179;48.776;9.124;2022-08-14T10:11:14;5.88;;;2.45;;
55913;SDS011;58179;48.776;9.124;2022-08-14T10:13:43;4.40;;;2.25;;
55913;SDS011;58179;48.776;9.124;2022-08-14T10:16:12;4.38;;;2.20;;
55913;SDS011;58179;48.776;9.124;2022-08-14T10:18:39;3.53;;;2.50;;
55913;SDS011;58179;48.776;9.124;2022-08-14T10:21:07;6.25;;;2.47;;
55913;SDS011;58179;48.776;9.124;2022-08-14T10:23:41;5.07;;;2.30;;
55913;SDS011;58179;48.776;9.124;2022-08-14T10:26:13;4.60;;;2.27;;
55913;SDS011;58179;48.776;9.124;2022-08-14T10:28:44;4.25;;;2.60;;
55913;SDS011;58179;48.776;9.124;2022-08-14T10:31:21;4.30;;;2.50;;
55913;SDS011;58179;48.776;9.124;2022-08-14T10:33:59;3.10;;;2.33;;
55913;SDS011;58179;48.776;9.124;2022-08-14T10:36:28;3.63;;;2.05;;
55913;SDS011;58179;48.776;9.124;2022-08-14T10:38:58;5.13;;;2.20;;
55913;SDS011;58179;48.776;9.124;2022-08-14T10:41:39;3.58;;;2.38;;
55913;SDS011;58179;48.776;9.124;2022-08-14T10:44:07;3.38;;;2.30;;
55913;SDS011;58179;48.776;9.124;2022-08-14T10:46:41;3.28;;;2.38;;
55913;SDS011;58179;48.776;9.124;2022-08-14T10:49:20;4.38;;;2.33;;
55913;SDS011;58179;48.776;9.124;2022-08-14T10:51:54;3.70;;;2.60;;
55913;SDS011;58179;48.776;9.124;2022-08-14T10:54:29;3.72;;;2.40;;
55913;SDS011;58179;48.776;9.124;2022-08-14T10:57:09;3.13;;;2.38;;
55913;SDS011;58179;48.776;9.124;2022-08-14T10:59:40;4.57;;;2.63;;
55913;SDS011;58179;48.776;9.124;2022-08-14T11:02:18;5.10;;;2.50;;
55913;SDS011;58179;48.776;9.124;2022-08-14T11:05:06;3.37;;;2.30;;
55913;SDS011;58179;48.776;9.124;2022-08-14T11:07:38;4.85;;;2.47;;
55913;SDS011;58179;48.776;9.124;2022-08-14T11:10:08;5.50;;;2.35;;
55913;SDS011;58179;48.776;9.124;2022-08-14T11:12:41;5.13;;;2.47;;
55913;SDS011;58179;48.776;9.124;2022-08-14T11:15:12;4.60;;;2.63;;
55913;SDS011;58179;48.776;9.124;2022-08-14T11:17:42;5.77;;;2.60;;
55913;SDS011;58179;48.776;9.124;2022-08-14T11:20:11;4.85;;;2.40;;
55913;SDS011;58179;48.776;9.124;2022-08-14T11:22:39;4.82;;;2.55;;
55913;SDS011;58179;48.776;9.124;2022-08-14T11:25:06;4.78;;;2.33;;
55913;SDS011;58179;48.776;9.124;2022-08-14T11:27:34;9.25;;;2.60;;
55913;SDS011;58179;48.776;9.124;2022-08-14T11:30:05;4.70;;;2.60;;
55913;SDS011;58179;48.776;9.124;2022-08-14T11:32:33;4.43;;;2.70;;
55913;SDS011;58179;48.776;9.124;2022-08-14T11:35:04;4.97;;;2.60;;
55913;SDS011;58179;48.776;9.124;2022-08-14T11:37:30;4.97;;;2.53;;
55913;SDS011;58179;48.776;9.124;2022-08-14T11:39:58;2.97;;;2.40;;
55913;SDS011;58179;48.776;9.124;2022-08-14T11:42:25;5.53;;;2.78;;
55913;SDS011;58179;48.776;9.124;2022-08-14T11:44:55;4.43;;;2.50;;
55913;SDS011;58179;48.776;9.124;2022-08-14T11:47:23;4.13;;;2.70;;
55913;SDS011;58179;48.776;9.124;2022-08-14T11:49:49;5.07;;;2.55;;
55913;SDS011;58179;48.776;9.124;2022-08-14T11:52:17;5.03;;;2.50;;
55913;SDS011;58179;48.776;9.124;2022-08-14T11:54:43;8.13;;;2.53;;
55913;SDS011;58179;48.776;9.124;2022-08-14T11:57:19;6.70;;;2.60;;
55913;SDS011;58179;48.776;9.124;2022-08-14T11:59:46;3.60;;;2.78;;
55913;SDS011;58179;48.776;9.124;2022-08-14T12:02:13;3.80;;;2.20;;
55913;SDS011;58179;48.776;9.124;2022-08-14T12:04:47;4.72;;;2.60;;
55913;SDS011;58179;48.776;9.124;2022-08-14T12:07:14;6.25;;;2.80;;
55913;SDS011;58179;48.776;9.124;2022-08-14T12:09:42;6.75;;;2.50;;
55913;SDS011;58179;48.776;9.124;2022-08-14T12:12:13;5.25;;;2.60;;
55913;SDS011;58179;48.776;9.124;2022-08-14T12:14:47;3.70;;;2.60;;
55913;SDS011;58179;48.776;9.124;2022-08-14T12:17:16;3.85;;;2.90;;
55913;SDS011;58179;48.776;9.124;2022-08-14T12:19:43;3.70;;;2.75;;
55913;SDS011;58179;48.776;9.124;2022-08-14T12:22:11;6.57;;;2.90;;
55913;SDS011;58179;48.776;9.124;2022-08-14T12:24:38;4.65;;;2.47;;
55913;SDS011;58179;48.776;9.124;2022-08-14T12:27:07;2.67;;;2.22;;
55913;SDS011;58179;48.776;9.124;2022-08-14T12:29:33;6.13;;;2.57;;
55913;SDS011;58179;48.776;9.124;2022-08-14T12:31:59;4.00;;;2.40;;
55913;SDS011;58179;48.776;9.124;2022-08-14T12:34:30;4.68;;;2.40;;
55913;SDS011;58179;48.776;9.124;2022-08-14T12:37:01;3.70;;;2.20;;
55913;SDS011;58179;48.776;9.124;2022-08-14T12:39:30;2.72;;;2.35;;
55913;SDS011;58179;48.776;9.124;2022-08-14T12:42:01;3.28;;;2.28;;
55913;SDS011;58179;48.776;9.124;2022-08-14T12:44:31;5.40;;;2.70;;
55913;SDS011;58179;48.776;9.124;2022-08-14T12:47:03;4.10;;;2.30;;
55913;SDS011;58179;48.776;9.124;2022-08-14T12:49:31;7.93;;;2.35;;
55913;SDS011;58179;48.776;9.124;2022-08-14T12:51:58;7.30;;;2.10;;
55913;SDS011;58179;48.776;9.124;2022-08-14T12:54:32;3.05;;;2.22;;
55913;SDS011;58179;48.776;9.124;2022-08-14T12:57:03;9.80;;;2.47;;
55913;SDS011;58179;48.776;9.124;2022-08-14T12:59:32;2.70;;;2.40;;
55913;SDS011;58179;48.776;9.124;2022-08-14T13:01:59;5.07;;;2.30;;
55913;SDS011;58179;48.776;9.124;2022-08-14T13:04:26;4.47;;;2.20;;
55913;SDS011;58179;48.776;9.124;2022-08-14T13:06:58;2.92;;;2.03;;
55913;SDS011;58179;48.776;9.124;2022-08-14T13:09:31;3.97;;;2.00;;
55913;SDS011;58179;48.776;9.124;2022-08-14T13:11:57;7.40;;;2.00;;
55913;SDS011;58179;48.776;9.124;2022-08-14T13:14:29;3.28;;;2.20;;
55913;SDS011;58179;48.776;9.124;2022-08-14T13:16:58;3.22;;;2.00;;
55913;SDS011;58179;48.776;9.124;2022-08-14T13:21:56;3.13;;;2.20;;
55913;SDS011;58179;48.776;9.124;2022-08-14T13:24:22;3.67;;;2.13;;
55913;SDS011;58179;48.776;9.124;2022-08-14T13:26:50;3.20;;;1.80;;
55913;SDS011;58179;48.776;9.124;2022-08-14T13:29:20;1.88;;;1.52;;
55913;SDS011;58179;48.776;9.124;2022-08-14T13:31:50;3.83;;;1.80;;
55913;SDS011;58179;48.776;9.124;2022-08-14T13:34:19;3.80;;;1.88;;
55913;SDS011;58179;48.776;9.124;2022-08-14T13:36:46;3.08;;;1.50;;
55913;SDS011;58179;48.776;9.124;2022-08-14T13:39:14;2.87;;;1.57;;
55913;SDS011;58179;48.776;9.124;2022-08-14T13:41:41;3.45;;;1.60;;
55913;SDS011;58179;48.776;9.124;2022-08-14T13:44:08;3.50;;;1.63;;
55913;SDS011;58179;48.776;9.124;2022-08-14T13:46:35;3.47;;;1.60;;
55913;SDS011;58179;48.776;9.124;2022-08-14T13:49:03;2.60;;;1.55;;
55913;SDS011;58179;48.776;9.124;2022-08-14T13:51:35;3.70;;;1.60;;
55913;SDS011;58179;48.776;9.124;2022-08-14T13:54:04;3.58;;;1.67;;
55913;SDS011;58179;48.776;9.124;2022-08-14T13:56:30;2.90;;;1.60;;
55913;SDS011;58179;48.776;9.124;2022-08-14T13:59:02;4.20;;;1.38;;
55913;SDS011;58179;48.776;9.124;2022-08-14T14:01:30;2.20;;;1.52;;
55913;SDS011;58179;48.776;9.124;2022-08-14T14:03:59;3.22;;;1.70;;
55913;SDS011;58179;48.776;9.124;2022-08-14T14:06:29;3.17;;;1.52;;
55913;SDS011;58179;48.776;9.124;2022-08-14T14:08:57;1.53;;;1.40;;
55913;SDS011;58179;48.776;9.124;2022-08-14T14:11:23;4.63;;;1.50;;
55913;SDS011;58179;48.776;9.124;2022-08-14T14:13:51;3.17;;;1.20;;
55913;SDS011;58179;48.776;9.124;2022-08-14T14:16:20;1.70;;;1.30;;
55913;SDS011;58179;48.776;9.124;2022-08-14T14:18:47;2.00;;;1.30;;
55913;SDS011;58179;48.776;9.124;2022-08-14T14:21:21;1.98;;;1.30;;
55913;SDS011;58179;48.776;9.124;2022-08-14T14:23:50;2.80;;;1.40;;
55913;SDS011;58179;48.776;9.124;2022-08-14T14:26:18;1.58;;;1.27;;
55913;SDS011;58179;48.776;9.124;2022-08-14T14:28:46;2.30;;;1.30;;
55913;SDS011;58179;48.776;9.124;2022-08-14T14:31:16;3.30;;;1.30;;
55913;SDS011;58179;48.776;9.124;2022-08-14T14:33:48;1.50;;;1.20;;
55913;SDS011;58179;48.776;9.124;2022-08-14T14:36:17;1.10;;;0.95;;
55913;SDS011;58179;48.776;9.124;2022-08-14T14:38:48;3.92;;;1.40;;
55913;SDS011;58179;48.776;9.124;2022-08-14T14:41:17;1.90;;;1.25;;
55913;SDS011;58179;48.776;9.124;2022-08-14T14:43:45;3.42;;;1.38;;
55913;SDS011;58179;48.776;9.124;2022-08-14T14:46:14;2.67;;;1.33;;
55913;SDS011;58179;48.776;9.124;2022-08-14T14:48:43;1.40;;;1.10;;
55913;SDS011;58179;48.776;9.124;2022-08-14T14:51:10;2.95;;;1.35;;
55913;SDS011;58179;48.776;9.124;2022-08-14T14:53:37;2.17;;;1.38;;
55913;SDS011;58179;48.776;9.124;2022-08-14T14:56:06;4.20;;;1.48;;
55913;SDS011;58179;48.776;9.124;2022-08-14T14:58:34;5.40;;;1.50;;
55913;SDS011;58179;48.776;9.124;2022-08-14T15:01:02;1.42;;;1.20;;